Nos coordonnées

Nous sommes à votre écoute du lundi au dimanche de 10:00 à 19:00 au :

+32 (0)495 19 89 53

 

Adresse d'exploitation Adresse de facturation
Chaussée de Nivelles, 629
6230 Buzet
Belgique
Kouter 107/2
9000 Gent
Belgique

contact @ blackhelicopters.be (n'oubliez pas de supprimer les espaces)


Nous retrouver

Il est très fortement conseillé de nous appeler avant de venir sur le terrain, nous pouvons être en mission ou en vol!

 

La carte ci-dessous est interactive, cherchez vos itinéraires, déplacez la pour vous retrouver.

News

Votre panier

Le panier est vide

Météo Charleroi

METAR
EBCI 081420Z 24016KT 9999 FEW015 09/06 Q1003 NOSIG =
EBCI 081110Z 0812/0918 25014KT 8000 BKN010 BECMG 0812/0813 FEW012 SCT040 PROB40 TEMPO 0817/0820 23018G30KT 3500 SHRA BKN014CB BECMG 0822/0824 22015G25KT TEMPO 0900/0907 22020G35KT TEMPO 0900/0916 2500 SHRAGS BKN012CB BECMG 0907/0909 26011KT BECMG 0913/0915 32013KT PROB30 TEMPO 0916/0921 3500 SHRA
TAF
EBCI 081110Z 0812/0918 25014KT 8000 BKN010 BECMG 0812/0813 FEW012 SCT040 PROB40 TEMPO 0817/0820 23018G30KT 3500 SHRA BKN014CB BECMG 0822/0824 22015G25KT TEMPO 0900/0907 22020G35KT TEMPO 0900/0916 2500 SHRAGS BKN012CB BECMG 0907/0909 26011KT BECMG 0913/0915 32013KT PROB30 TEMPO 0916/0921 3500 SHRA =
Lever / Coucher : 07:29 / 15:40 UTC (Buzet 2019-12-08)